Time;durP1;ratioP1;P1;durP2;ratioP2;P2;SDS_P1;SDS_P2;PMS_P1;PMS_P2;Temp;Humidity;BMP_temperature;BMP_pressure;BME280_temperature;BME280_humidity;BME280_pressure;Samples;Min_cycle;Max_cycle;Signal;HPM_P1;HPM_P2
2023/01/17 00:02:25;;;;;;;;;0.00;0.00;;;;;3.88;81.57;98292.66;5022801;28;11440;-69
2023/01/17 00:10:24;;;;;;;;;0.00;0.00;;;;;3.75;80.84;98312.16;5023887;28;11425;-69
2023/01/17 00:12:56;;;;;;;;;1.00;0.00;;;;;3.66;81.03;98306.28;5020741;28;11446;-69
2023/01/17 00:15:23;;;;;;;;;0.00;0.00;;;;;3.61;80.88;98321.25;5027341;28;11438;-68
2023/01/17 00:17:50;;;;;;;;;0.00;0.00;;;;;3.50;80.49;98320.06;5027893;28;12856;-69
2023/01/17 00:26:03;;;;;;;;;0.00;0.00;;;;;3.35;80.11;98307.00;5023643;28;12098;-68
2023/01/17 01:35:52;;;;;;;;;0.00;0.00;;;;;3.56;79.32;98424.78;5021530;28;11107;-67
2023/01/17 01:38:21;;;;;;;;;0.00;0.00;;;;;3.38;79.69;98430.75;5020537;28;11436;-68
2023/01/17 01:40:53;;;;;;;;;0.50;0.00;;;;;3.30;79.68;98430.97;5021958;28;11579;-65
2023/01/17 01:43:42;;;;;;;;;0.00;0.00;;;;;3.29;79.99;98430.16;5022694;28;11494;-68
2023/01/17 01:46:23;;;;;;;;;0.00;0.00;;;;;3.24;80.50;98427.28;5026410;28;12252;-67
2023/01/17 01:49:01;;;;;;;;;0.00;0.00;;;;;3.30;80.57;98434.44;5023434;28;11479;-68
2023/01/17 01:51:49;;;;;;;;;0.00;0.00;;;;;3.36;80.66;98444.28;5013028;28;11560;-68
2023/01/17 01:54:24;;;;;;;;;0.00;0.00;;;;;3.40;79.76;98444.66;5021013;28;11516;-69
2023/01/17 01:56:55;;;;;;;;;1.00;0.00;;;;;3.34;79.69;98446.31;5020773;28;12285;-66
2023/01/17 01:59:22;;;;;;;;;0.00;0.00;;;;;3.34;79.62;98446.31;5027374;28;12338;-67
2023/01/17 02:01:51;;;;;;;;;0.00;0.00;;;;;3.37;80.01;98453.88;5021425;28;11466;-63
2023/01/17 02:04:20;;;;;;;;;0.00;0.00;;;;;3.42;79.41;98455.91;5026713;28;11437;-69
2023/01/17 02:07:11;;;;;;;;;0.25;0.25;;;;;3.44;79.31;98462.69;5024241;28;11527;-68
2023/01/17 02:09:38;;;;;;;;;0.00;0.00;;;;;3.37;79.37;98474.34;5027751;28;11427;-67
2023/01/17 02:12:05;;;;;;;;;0.00;0.00;;;;;3.31;79.00;98472.50;5026705;28;12338;-68
2023/01/17 02:14:31;;;;;;;;;0.00;0.00;;;;;3.28;78.80;98470.22;5031622;28;11541;-67
2023/01/17 02:17:14;;;;;;;;;0.00;0.00;;;;;3.26;78.86;98482.94;5022828;28;11518;-67
2023/01/17 02:19:59;;;;;;;;;0.00;0.00;;;;;3.23;79.15;98478.81;5032882;28;11446;-70
2023/01/17 02:22:49;;;;;;;;;0.00;0.00;;;;;3.25;78.96;98483.97;5021641;28;11531;-70
2023/01/17 02:25:53;;;;;;;;;0.00;0.00;;;;;3.25;79.39;98482.13;5031367;28;12171;-68
2023/01/17 02:28:45;;;;;;;;;0.00;0.00;;;;;3.31;79.03;98481.28;5018282;28;11449;-68
2023/01/17 02:31:32;;;;;;;;;0.00;0.00;;;;;3.37;78.99;98482.31;5026742;28;11435;-68
2023/01/17 02:34:18;;;;;;;;;0.00;0.00;;;;;3.40;79.16;98489.84;5023375;28;11479;-67
2023/01/17 02:37:07;;;;;;;;;0.00;0.00;;;;;3.36;79.15;98486.81;5025755;28;11515;-67
2023/01/17 02:39:38;;;;;;;;;0.00;0.00;;;;;3.39;78.85;98489.03;5024592;28;11602;-68
2023/01/17 02:42:19;;;;;;;;;0.00;0.00;;;;;3.35;78.75;98487.81;5027240;28;11430;-69
2023/01/17 02:44:45;;;;;;;;;0.00;0.00;;;;;3.32;78.24;98487.41;5028130;28;12200;-67
2023/01/17 02:47:23;;;;;;;;;1.00;0.00;;;;;3.32;78.21;98487.41;5022587;28;11440;-68
2023/01/17 02:49:52;;;;;;;;;0.00;0.00;;;;;3.33;78.20;98484.56;5028453;28;12260;-70
2023/01/17 02:52:47;;;;;;;;;0.00;0.00;;;;;3.31;78.17;98477.81;5017552;28;11493;-67
2023/01/17 02:55:40;;;;;;;;;0.00;0.00;;;;;3.30;77.30;98492.13;5022815;28;11572;-69
2023/01/17 02:58:30;;;;;;;;;0.00;0.00;;;;;3.24;76.86;98488.44;5009773;28;11554;-68
2023/01/17 03:01:09;;;;;;;;;0.00;0.00;;;;;3.16;77.08;98483.31;5027432;28;11496;-68
2023/01/17 03:03:50;;;;;;;;;0.00;0.00;;;;;3.06;75.81;98488.25;5026734;28;11440;-68
2023/01/17 03:06:30;;;;;;;;;1.00;0.00;;;;;3.08;76.50;98489.69;5016555;28;12165;-69
2023/01/17 03:08:56;;;;;;;;;1.00;0.00;;;;;3.14;76.33;98496.00;5025397;28;11518;-69
2023/01/17 03:11:23;;;;;;;;;0.00;0.00;;;;;3.18;76.50;98502.56;5017731;28;11461;-68
2023/01/17 03:13:54;;;;;;;;;0.00;0.00;;;;;3.23;76.23;98500.09;5023975;28;12175;-68
2023/01/17 03:16:22;;;;;;;;;1.00;0.00;;;;;3.28;76.23;98504.78;5023399;28;11414;-69
2023/01/17 03:18:49;;;;;;;;;1.00;0.00;;;;;3.29;75.99;98509.13;5031878;28;11542;-69
2023/01/17 03:21:16;;;;;;;;;1.00;0.00;;;;;3.33;76.29;98499.69;5030743;28;11509;-69
2023/01/17 03:23:43;;;;;;;;;0.00;0.00;;;;;3.35;75.97;98508.28;5027309;28;11420;-69
2023/01/17 03:26:09;;;;;;;;;0.00;0.00;;;;;3.38;76.03;98510.53;5022055;28;12254;-68
2023/01/17 03:28:35;;;;;;;;;0.00;0.00;;;;;3.38;75.85;98510.53;5022689;28;12265;-68
2023/01/17 03:31:02;;;;;;;;;0.75;0.00;;;;;3.37;76.12;98511.56;5024091;28;11494;-69
2023/01/17 03:33:29;;;;;;;;;0.00;0.00;;;;;3.35;75.88;98513.59;5028061;28;11422;-68
2023/01/17 03:35:57;;;;;;;;;0.00;0.00;;;;;3.33;76.11;98511.16;5028761;28;11434;-69
2023/01/17 03:38:27;;;;;;;;;0.00;0.00;;;;;3.31;76.26;98518.50;5017612;28;11549;-68
2023/01/17 03:40:54;;;;;;;;;0.00;0.00;;;;;3.26;76.51;98518.31;5024070;28;11440;-68
2023/01/17 03:43:20;;;;;;;;;0.00;0.00;;;;;3.25;76.59;98523.84;5025026;28;11431;-68
2023/01/17 03:45:53;;;;;;;;;0.00;0.00;;;;;3.20;76.74;98522.59;5023086;28;11429;-68
2023/01/17 03:48:20;;;;;;;;;0.00;0.00;;;;;3.17;76.86;98532.81;5020012;28;11430;-67
2023/01/17 03:50:49;;;;;;;;;0.00;0.00;;;;;3.16;77.14;98534.66;5020327;28;12294;-68
2023/01/17 03:53:16;;;;;;;;;0.00;0.00;;;;;3.14;77.25;98536.69;5019184;28;12262;-68
2023/01/17 03:55:44;;;;;;;;;0.00;0.00;;;;;3.15;77.39;98534.84;5028780;28;11444;-67
2023/01/17 03:58:11;;;;;;;;;0.00;0.00;;;;;3.11;77.13;98528.31;5021958;28;11418;-68
2023/01/17 04:00:37;;;;;;;;;1.00;0.00;;;;;3.09;77.53;98530.38;5023590;28;11515;-67
2023/01/17 04:03:04;;;;;;;;;0.50;0.00;;;;;3.07;77.83;98533.22;5018155;28;12166;-68
2023/01/17 04:05:30;;;;;;;;;0.00;0.00;;;;;3.04;77.56;98532.78;5035327;28;11423;-67
2023/01/17 04:07:56;;;;;;;;;0.00;0.00;;;;;3.03;77.84;98541.78;5029046;28;11406;-68
2023/01/17 04:10:23;;;;;;;;;0.00;0.00;;;;;3.01;77.53;98539.34;5027013;28;11430;-69
2023/01/17 04:12:49;;;;;;;;;0.00;0.00;;;;;3.03;78.09;98539.94;5017475;28;11441;-68
2023/01/17 04:15:16;;;;;;;;;0.00;0.00;;;;;3.04;77.96;98538.94;5027762;28;11453;-68
2023/01/17 04:17:42;;;;;;;;;0.00;0.00;;;;;3.06;78.00;98539.56;5017335;28;11450;-68
2023/01/17 04:20:24;;;;;;;;;0.00;0.00;;;;;3.07;77.91;98549.16;5027055;28;11435;-66
2023/01/17 04:22:51;;;;;;;;;0.00;0.00;;;;;3.07;78.24;98540.38;5013281;28;12268;-67
2023/01/17 04:25:18;;;;;;;;;0.00;0.00;;;;;3.05;77.77;98540.59;5026034;28;11468;-67
2023/01/17 04:27:45;;;;;;;;;0.00;0.00;;;;;3.00;77.90;98543.03;5023278;28;12301;-69
2023/01/17 04:30:11;;;;;;;;;0.00;0.00;;;;;2.98;77.94;98540.56;5022574;28;12140;-66
2023/01/17 04:32:38;;;;;;;;;0.00;0.00;;;;;2.98;77.94;98539.75;5027906;28;11466;-68
2023/01/17 04:35:05;;;;;;;;;0.00;0.00;;;;;2.95;78.05;98545.47;5024640;28;11410;-68
2023/01/17 04:37:32;;;;;;;;;0.00;0.00;;;;;2.95;78.01;98540.97;5023886;28;12119;-67
2023/01/17 04:39:58;;;;;;;;;0.00;0.00;;;;;2.94;78.20;98541.16;5022618;28;11464;-68
2023/01/17 04:42:25;;;;;;;;;0.00;0.00;;;;;2.93;78.13;98545.66;5021969;28;11423;-68
2023/01/17 04:44:51;;;;;;;;;0.00;0.00;;;;;2.91;77.94;98545.03;5023468;28;11557;-68
2023/01/17 04:47:18;;;;;;;;;1.00;0.00;;;;;2.89;77.67;98547.09;5023378;28;12250;-68
2023/01/17 04:49:44;;;;;;;;;0.00;0.00;;;;;2.89;78.13;98547.09;5021916;28;11496;-68
2023/01/17 04:52:11;;;;;;;;;2.25;0.00;;;;;2.89;78.07;98546.28;5027762;28;11426;-68
2023/01/17 04:54:37;;;;;;;;;0.00;0.00;;;;;2.89;78.56;98543.63;5021523;28;11512;-68
2023/01/17 04:57:03;;;;;;;;;0.00;0.00;;;;;2.89;78.54;98544.44;5025675;28;11574;-67
2023/01/17 04:59:30;;;;;;;;;0.25;0.25;;;;;2.90;78.34;98545.25;5016528;28;11527;-68
2023/01/17 05:01:56;;;;;;;;;0.00;0.00;;;;;2.88;78.32;98542.00;5021272;28;11468;-68
2023/01/17 05:04:23;;;;;;;;;0.00;0.00;;;;;2.86;78.17;98539.50;5019249;28;11455;-67
2023/01/17 05:06:49;;;;;;;;;0.00;0.00;;;;;2.84;77.94;98541.56;5021931;28;11555;-68
2023/01/17 05:09:16;;;;;;;;;0.00;0.00;;;;;2.82;78.14;98540.94;5023850;28;11450;-66
2023/01/17 05:11:42;;;;;;;;;1.50;0.50;;;;;2.79;77.72;98536.00;5022159;28;11612;-67
2023/01/17 05:14:09;;;;;;;;;0.00;0.00;;;;;2.76;78.02;98539.09;5026177;28;11469;-66
2023/01/17 05:16:35;;;;;;;;;0.00;0.00;;;;;2.76;77.95;98538.28;5017819;28;11570;-67
2023/01/17 05:19:02;;;;;;;;;0.00;0.00;;;;;2.73;77.96;98539.50;5019467;28;11431;-67
2023/01/17 05:21:30;;;;;;;;;1.00;0.00;;;;;2.69;77.89;98541.72;5021837;28;11443;-66
2023/01/17 05:23:56;;;;;;;;;0.00;0.00;;;;;2.65;77.88;98548.44;5028438;28;11485;-66
2023/01/17 05:26:23;;;;;;;;;0.00;0.00;;;;;2.64;78.18;98551.31;5028749;28;12182;-66
2023/01/17 05:28:50;;;;;;;;;0.25;0.25;;;;;2.63;77.90;98562.94;5014693;28;11638;-67
2023/01/17 05:31:16;;;;;;;;;1.00;0.00;;;;;2.59;78.07;98559.03;5024835;28;11465;-65
2023/01/17 05:33:43;;;;;;;;;1.50;0.00;;;;;2.59;77.89;98569.66;5047389;28;11478;-67
2023/01/17 05:36:09;;;;;;;;;0.00;0.00;;;;;2.58;78.02;98568.84;5025895;28;11445;-66
2023/01/17 05:38:36;;;;;;;;;0.50;0.00;;;;;2.61;77.75;98572.97;5027937;28;11426;-70
2023/01/17 05:41:03;;;;;;;;;0.00;0.00;;;;;2.59;77.97;98578.44;5024490;28;12287;-65
2023/01/17 05:43:30;;;;;;;;;0.00;0.00;;;;;2.55;77.82;98587.00;5025498;28;11472;-66
2023/01/17 05:45:57;;;;;;;;;0.00;0.00;;;;;2.55;77.76;98585.19;5024514;28;11459;-68
2023/01/17 05:48:23;;;;;;;;;0.00;0.00;;;;;2.59;78.21;98582.94;5024628;28;11439;-66
2023/01/17 05:50:51;;;;;;;;;1.00;0.00;;;;;2.61;77.94;98592.38;5029540;28;11450;-67
2023/01/17 05:53:17;;;;;;;;;1.00;0.00;;;;;2.63;77.99;98594.81;5025591;28;11469;-64
2023/01/17 05:55:44;;;;;;;;;0.00;0.00;;;;;2.63;78.06;98594.81;5029124;28;12260;-66
2023/01/17 05:58:15;;;;;;;;;0.00;0.00;;;;;2.62;77.95;98591.34;5025160;28;11584;-68
2023/01/17 06:00:42;;;;;;;;;0.00;0.00;;;;;2.64;77.87;98597.28;5040461;28;11441;-66
2023/01/17 06:03:08;;;;;;;;;0.00;0.00;;;;;2.65;77.32;98592.78;5025562;28;11505;-67
2023/01/17 06:05:34;;;;;;;;;0.00;0.00;;;;;2.67;77.96;98598.72;5023503;28;11438;-64
2023/01/17 06:08:01;;;;;;;;;0.00;0.00;;;;;2.66;77.48;98595.25;5025623;28;11500;-66
2023/01/17 06:10:28;;;;;;;;;0.00;0.00;;;;;2.67;77.53;98596.06;5014579;28;11471;-69
2023/01/17 06:13:06;;;;;;;;;0.00;0.00;;;;;2.70;77.36;98595.66;5044446;28;11425;-67
2023/01/17 06:15:34;;;;;;;;;0.00;0.00;;;;;2.68;77.00;98587.91;5024057;28;11424;-67
2023/01/17 06:18:09;;;;;;;;;1.00;1.00;;;;;2.65;76.84;98588.28;5028941;28;11576;-67
2023/01/17 06:20:36;;;;;;;;;0.00;0.00;;;;;2.64;76.57;98588.50;5023271;28;11453;-67
2023/01/17 06:23:05;;;;;;;;;1.00;1.00;;;;;2.62;76.76;98588.69;5026486;28;11459;-68
2023/01/17 06:25:49;;;;;;;;;1.00;1.00;;;;;2.59;76.94;98605.00;5021338;28;11583;-67
2023/01/17 06:28:19;;;;;;;;;0.00;0.00;;;;;2.57;76.69;98611.56;5027300;28;11482;-67
2023/01/17 06:30:45;;;;;;;;;1.50;1.50;;;;;2.54;77.05;98606.63;5042270;28;11607;-67
2023/01/17 06:33:12;;;;;;;;;0.00;0.00;;;;;2.52;76.88;98606.84;5026860;28;11547;-65
2023/01/17 06:35:39;;;;;;;;;0.00;0.00;;;;;2.52;76.87;98606.03;5023984;28;11468;-68
2023/01/17 06:38:08;;;;;;;;;1.25;0.00;;;;;2.52;76.49;98614.81;5021804;28;11536;-67
2023/01/17 06:40:35;;;;;;;;;0.25;0.00;;;;;2.54;76.48;98610.09;5021718;28;11434;-67
2023/01/17 06:43:03;;;;;;;;;0.00;0.00;;;;;2.57;76.44;98614.22;5024264;28;11504;-67
2023/01/17 06:45:32;;;;;;;;;0.00;0.00;;;;;2.57;76.16;98615.03;5031948;28;11575;-67
2023/01/17 06:48:02;;;;;;;;;0.00;0.00;;;;;2.57;75.81;98620.34;5033732;28;11447;-67
2023/01/17 06:50:29;;;;;;;;;1.00;1.00;;;;;2.60;75.68;98625.25;5033444;28;12283;-66
2023/01/17 06:53:02;;;;;;;;;0.00;0.00;;;;;2.64;75.47;98625.69;5033027;28;11421;-63
2023/01/17 06:55:30;;;;;;;;;0.00;0.00;;;;;2.63;75.22;98624.03;5023581;28;11429;-65
2023/01/17 06:57:58;;;;;;;;;0.00;0.00;;;;;2.59;75.03;98620.94;5025603;28;11482;-65
2023/01/17 07:00:25;;;;;;;;;0.00;0.00;;;;;2.60;74.95;98625.25;5016755;28;11542;-65
2023/01/17 07:02:52;;;;;;;;;0.50;0.50;;;;;2.60;74.72;98621.78;5033001;28;11500;-66
2023/01/17 07:05:18;;;;;;;;;1.00;0.00;;;;;2.62;74.26;98622.41;5020322;28;12291;-67
2023/01/17 07:07:45;;;;;;;;;0.00;0.00;;;;;2.65;74.12;98627.31;5018749;28;11441;-67
2023/01/17 07:10:14;;;;;;;;;0.00;0.00;;;;;2.67;74.35;98625.28;5029811;28;11521;-66
2023/01/17 07:12:41;;;;;;;;;0.00;0.00;;;;;2.66;73.48;98631.59;5032252;28;11440;-66
2023/01/17 07:15:08;;;;;;;;;0.00;0.00;;;;;2.63;73.40;98627.53;5032253;28;11476;-67
2023/01/17 07:17:34;;;;;;;;;0.00;0.00;;;;;2.63;73.46;98629.34;5026393;28;11565;-66
2023/01/17 07:20:01;;;;;;;;;0.00;0.00;;;;;2.65;73.11;98628.13;5025858;28;11449;-67
2023/01/17 07:22:27;;;;;;;;;0.00;0.00;;;;;2.62;72.61;98631.19;5025786;28;11473;-68
2023/01/17 07:24:57;;;;;;;;;0.00;0.00;;;;;2.64;72.70;98631.81;5011725;28;12188;-68
2023/01/17 07:27:24;;;;;;;;;0.00;0.00;;;;;2.64;72.36;98628.34;5019988;28;11426;-68
2023/01/17 07:29:51;;;;;;;;;0.00;0.00;;;;;2.69;72.52;98631.22;5024128;28;11471;-69
2023/01/17 07:32:19;;;;;;;;;2.75;0.25;;;;;2.68;71.64;98635.72;5030533;28;11588;-68
2023/01/17 07:34:46;;;;;;;;;2.00;0.00;;;;;2.64;71.61;98628.34;5024141;28;11425;-67
2023/01/17 07:37:12;;;;;;;;;0.00;0.00;;;;;2.65;71.39;98635.28;5031878;28;12149;-67
2023/01/17 07:39:41;;;;;;;;;0.00;0.00;;;;;2.67;71.28;98641.22;5013618;28;11454;-67
2023/01/17 07:42:07;;;;;;;;;0.00;0.00;;;;;2.69;71.11;98639.19;5024639;28;12248;-66
2023/01/17 07:44:34;;;;;;;;;0.00;0.00;;;;;2.68;71.03;98640.22;5030048;28;11445;-67
2023/01/17 07:47:01;;;;;;;;;0.00;0.00;;;;;2.69;71.14;98636.53;5026412;28;12327;-68
2023/01/17 07:49:27;;;;;;;;;0.00;0.00;;;;;2.70;71.00;98644.28;5021401;28;11591;-67
2023/01/17 07:51:54;;;;;;;;;0.00;0.00;;;;;2.66;70.63;98632.44;5026968;28;12200;-66
2023/01/17 07:54:20;;;;;;;;;0.00;0.00;;;;;2.67;69.87;98633.25;5019498;28;11456;-67
2023/01/17 07:56:47;;;;;;;;;0.00;0.00;;;;;2.69;70.27;98634.69;5024547;28;11441;-67
2023/01/17 07:59:14;;;;;;;;;0.00;0.00;;;;;2.73;70.11;98633.28;5028262;28;11434;-67
2023/01/17 08:01:40;;;;;;;;;0.00;0.00;;;;;2.75;70.20;98633.06;5019571;28;11545;-69
2023/01/17 08:04:08;;;;;;;;;0.00;0.00;;;;;2.73;70.15;98629.81;5030533;28;11443;-66
2023/01/17 08:06:36;;;;;;;;;0.00;0.00;;;;;2.77;70.21;98624.91;5021743;28;11573;-68
2023/01/17 08:09:06;;;;;;;;;0.00;0.00;;;;;2.80;70.42;98628.00;5022355;28;11553;-67
2023/01/17 08:11:32;;;;;;;;;1.00;1.00;;;;;2.83;70.72;98635.56;5029051;28;11435;-66
2023/01/17 08:13:59;;;;;;;;;0.00;0.00;;;;;2.81;70.41;98639.44;5028864;28;11421;-65
2023/01/17 08:16:27;;;;;;;;;0.00;0.00;;;;;2.80;70.70;98643.94;5018648;28;11548;-65
2023/01/17 08:18:55;;;;;;;;;0.00;0.00;;;;;2.80;70.72;98649.25;5030464;28;11494;-67
2023/01/17 08:21:22;;;;;;;;;0.00;0.00;;;;;2.79;70.90;98655.56;5030302;28;11569;-68
2023/01/17 08:23:50;;;;;;;;;0.00;0.00;;;;;2.82;70.76;98657.03;5030164;28;11448;-68
2023/01/17 08:26:21;;;;;;;;;0.00;0.00;;;;;2.81;70.66;98658.84;5029813;28;11436;-67
2023/01/17 08:28:56;;;;;;;;;1.00;0.00;;;;;2.81;70.89;98666.84;5030411;28;11431;-67
2023/01/17 08:31:23;;;;;;;;;0.00;0.00;;;;;2.82;71.17;98655.19;5027923;28;11560;-67
2023/01/17 08:33:49;;;;;;;;;0.00;0.00;;;;;2.79;70.99;98660.06;5016348;28;11445;-67
2023/01/17 08:36:16;;;;;;;;;0.00;0.00;;;;;2.79;71.04;98658.22;5026865;28;11577;-67
2023/01/17 08:38:43;;;;;;;;;1.00;1.00;;;;;2.80;71.32;98665.19;5021941;28;11442;-67
2023/01/17 08:41:09;;;;;;;;;0.25;0.00;;;;;2.81;72.03;98671.31;5030002;28;11485;-68
2023/01/17 08:43:35;;;;;;;;;0.00;0.00;;;;;2.83;72.01;98669.28;5023497;28;11484;-68
2023/01/17 08:46:02;;;;;;;;;1.00;1.00;;;;;2.86;72.00;98676.84;5019314;28;11421;-68
2023/01/17 08:48:28;;;;;;;;;1.00;1.00;;;;;2.86;72.20;98667.06;5024850;28;11464;-68
2023/01/17 08:50:59;;;;;;;;;0.75;0.75;;;;;2.90;72.24;98670.94;5024888;28;11575;-68
2023/01/17 08:53:25;;;;;;;;;1.00;1.00;;;;;2.95;72.27;98679.13;5026209;28;11442;-68
2023/01/17 08:55:59;;;;;;;;;1.00;1.00;;;;;2.98;72.07;98680.59;5028818;28;11472;-68
2023/01/17 08:58:27;;;;;;;;;1.75;0.00;;;;;3.03;72.31;98680.81;5021917;28;11475;-68
2023/01/17 09:01:01;;;;;;;;;1.00;1.00;;;;;3.04;71.83;98682.47;5021434;28;11441;-67
2023/01/17 09:03:29;;;;;;;;;1.00;1.00;;;;;3.05;71.69;98686.75;5021336;28;11538;-68
2023/01/17 09:06:00;;;;;;;;;1.50;1.50;;;;;3.02;71.66;98689.00;5019943;28;11442;-66
2023/01/17 09:08:27;;;;;;;;;1.00;1.00;;;;;3.03;71.62;98688.78;5036015;28;11425;-67
2023/01/17 09:10:53;;;;;;;;;2.00;0.00;;;;;3.02;71.20;98689.81;5035133;28;12145;-67
2023/01/17 09:13:20;;;;;;;;;4.00;1.00;;;;;3.01;71.40;98690.84;5029967;28;11523;-68
2023/01/17 09:15:46;;;;;;;;;0.00;0.00;;;;;2.96;70.95;98696.75;5027639;28;11550;-68
2023/01/17 09:18:12;;;;;;;;;1.00;1.00;;;;;2.93;71.15;98699.78;5023878;28;11531;-67
2023/01/17 09:20:39;;;;;;;;;1.00;1.00;;;;;2.94;71.23;98698.78;5035077;28;11462;-67
2023/01/17 09:23:05;;;;;;;;;1.25;1.25;;;;;2.97;70.92;98702.88;5036207;28;11423;-68
2023/01/17 09:25:32;;;;;;;;;1.00;1.00;;;;;3.01;71.20;98703.31;5036021;28;11425;-67
2023/01/17 09:27:58;;;;;;;;;1.00;1.00;;;;;3.03;70.88;98698.59;5035482;28;11502;-64
2023/01/17 09:30:25;;;;;;;;;1.00;1.00;;;;;3.06;70.61;98699.03;5030126;28;11527;-65
2023/01/17 09:32:53;;;;;;;;;1.00;1.00;;;;;3.06;70.48;98700.88;5027497;28;11476;-66
2023/01/17 09:35:20;;;;;;;;;1.25;1.00;;;;;3.11;70.87;98699.25;5027561;28;11435;-67
2023/01/17 09:37:50;;;;;;;;;1.00;1.00;;;;;3.18;70.02;98704.59;5024334;28;11434;-68
2023/01/17 09:40:19;;;;;;;;;1.50;1.00;;;;;3.20;70.13;98713.16;5028139;28;11501;-68
2023/01/17 09:42:50;;;;;;;;;2.00;1.00;;;;;3.24;69.66;98719.72;5038517;28;11450;-68
2023/01/17 09:45:18;;;;;;;;;1.50;1.00;;;;;3.30;69.55;98721.63;5024662;28;11465;-69
2023/01/17 09:47:51;;;;;;;;;2.00;2.00;;;;;3.32;69.38;98724.06;5030566;28;11510;-68
2023/01/17 09:50:30;;;;;;;;;0.00;0.00;;;;;3.29;69.29;98725.28;5031445;28;11490;-68
2023/01/17 09:53:04;;;;;;;;;0.50;0.50;;;;;3.29;69.33;98727.97;5024105;28;11598;-69
2023/01/17 09:55:40;;;;;;;;;0.00;0.00;;;;;3.42;70.42;98729.84;5031929;28;11561;-69
2023/01/17 09:58:14;;;;;;;;;2.00;1.50;;;;;3.45;69.62;98732.09;5028363;28;12209;-67
2023/01/17 10:00:53;;;;;;;;;0.00;0.00;;;;;3.46;69.09;98723.91;5033538;28;11490;-68
2023/01/17 10:03:42;;;;;;;;;9.75;8.50;;;;;3.50;69.37;98728.84;5022227;28;11437;-68
2023/01/17 10:06:22;;;;;;;;;1.00;1.00;;;;;3.53;69.49;98729.25;5023922;28;11488;-67
2023/01/17 10:09:12;;;;;;;;;2.00;1.00;;;;;3.57;69.56;98737.66;5035928;28;11535;-68
2023/01/17 10:11:47;;;;;;;;;3.25;1.50;;;;;3.55;69.26;98731.72;5030488;28;11444;-69
2023/01/17 10:14:22;;;;;;;;;0.50;0.50;;;;;3.52;69.27;98738.25;5032438;28;11432;-68
2023/01/17 10:17:00;;;;;;;;;1.00;1.00;;;;;3.46;69.26;98750.50;5023953;28;11453;-68
2023/01/17 10:19:42;;;;;;;;;0.75;0.75;;;;;3.41;68.96;98750.28;5032672;28;11433;-68
2023/01/17 10:22:31;;;;;;;;;0.50;0.50;;;;;3.37;69.33;98749.06;5029161;28;12185;-67
2023/01/17 10:25:42;;;;;;;;;1.00;1.00;;;;;3.39;69.66;98751.50;5027626;28;11556;-69
2023/01/17 10:28:15;;;;;;;;;1.25;1.25;;;;;3.39;69.42;98760.28;5011177;28;11440;-67
2023/01/17 10:30:56;;;;;;;;;1.00;0.50;;;;;3.36;69.54;98751.91;5024439;28;11437;-70
2023/01/17 10:33:28;;;;;;;;;1.00;1.00;;;;;3.31;69.57;98757.81;5032328;28;11432;-69
2023/01/17 10:35:59;;;;;;;;;1.00;1.00;;;;;3.24;69.11;98754.28;5026897;28;11583;-69
2023/01/17 10:38:30;;;;;;;;;1.00;1.00;;;;;3.19;69.09;98751.41;5026965;28;11547;-68
2023/01/17 10:41:08;;;;;;;;;1.50;1.50;;;;;3.17;69.44;98756.13;5024015;28;11457;-69
2023/01/17 10:43:48;;;;;;;;;0.00;0.00;;;;;3.17;69.77;98753.47;5026656;28;11433;-69
2023/01/17 10:46:27;;;;;;;;;0.50;0.50;;;;;3.27;70.97;98748.59;5027483;28;11404;-69
2023/01/17 10:48:55;;;;;;;;;1.00;0.00;;;;;3.34;70.75;98749.44;5026547;28;11512;-67
2023/01/17 10:51:30;;;;;;;;;0.50;0.50;;;;;3.28;70.22;98744.09;5031367;28;12140;-69
2023/01/17 10:54:19;;;;;;;;;1.50;1.50;;;;;3.17;69.85;98756.13;5014245;28;11465;-68
2023/01/17 10:56:46;;;;;;;;;1.00;1.00;;;;;3.13;69.65;98742.41;5025089;28;11578;-68
2023/01/17 10:59:29;;;;;;;;;1.50;1.50;;;;;3.17;69.49;98756.13;5023672;28;11434;-68
2023/01/17 11:01:57;;;;;;;;;4.00;1.25;;;;;3.20;68.96;98753.06;5031861;28;11427;-69
2023/01/17 11:04:35;;;;;;;;;1.00;1.00;;;;;3.25;69.31;98744.50;5031598;28;11450;-67
2023/01/17 11:07:12;;;;;;;;;2.50;1.00;;;;;3.32;69.05;98742.66;5029171;28;11456;-66
2023/01/17 11:09:41;;;;;;;;;1.00;1.00;;;;;3.36;68.74;98746.56;5026238;28;11568;-67
2023/01/17 11:12:19;;;;;;;;;0.50;0.50;;;;;3.45;68.24;98751.53;5022389;28;11587;-68
2023/01/17 11:15:16;;;;;;;;;1.00;1.00;;;;;3.55;68.55;98737.84;5021594;28;11498;-68
2023/01/17 11:17:51;;;;;;;;;1.00;1.00;;;;;3.60;68.18;98734.56;5019692;28;11438;-68
2023/01/17 11:20:32;;;;;;;;;1.50;1.50;;;;;3.63;67.99;98735.00;5011830;28;12224;-69
2023/01/17 11:23:22;;;;;;;;;2.00;0.75;;;;;3.67;67.84;98738.91;5023045;28;11491;-69
2023/01/17 11:25:56;;;;;;;;;1.00;1.00;;;;;3.65;67.42;98732.97;5023299;28;12154;-69
2023/01/17 11:28:29;;;;;;;;;1.00;1.00;;;;;3.67;67.31;98728.25;5020240;28;11541;-68
2023/01/17 11:31:02;;;;;;;;;0.50;0.50;;;;;3.78;67.70;98734.84;5028111;28;11502;-68
2023/01/17 11:33:46;;;;;;;;;0.75;0.75;;;;;3.88;67.06;98732.59;5030043;28;11577;-68
2023/01/17 11:36:14;;;;;;;;;1.00;1.00;;;;;3.93;67.31;98727.50;5011120;28;11449;-67
2023/01/17 11:39:13;;;;;;;;;1.00;1.00;;;;;4.01;67.05;98726.47;5011060;28;11528;-67
2023/01/17 11:41:40;;;;;;;;;1.00;1.00;;;;;4.10;66.57;98724.44;5026056;28;11464;-67
2023/01/17 11:44:33;;;;;;;;;1.00;1.00;;;;;4.22;66.43;98714.81;5022551;28;12151;-68
2023/01/17 11:47:06;;;;;;;;;1.00;1.00;;;;;4.33;66.08;98718.66;5017448;28;11436;-69
2023/01/17 11:49:32;;;;;;;;;2.00;2.00;;;;;4.37;65.71;98727.88;5037801;28;11574;-70
2023/01/17 11:51:59;;;;;;;;;1.00;1.00;;;;;4.38;66.01;98722.38;5045954;28;11469;-67
2023/01/17 11:54:38;;;;;;;;;3.25;3.00;;;;;4.45;65.81;98717.84;5030828;28;11459;-70
2023/01/17 11:57:15;;;;;;;;;2.25;1.00;;;;;4.51;66.07;98715.38;5031029;28;12287;-69
2023/01/17 11:59:43;;;;;;;;;1.00;1.00;;;;;4.57;65.53;98714.53;5029791;28;11446;-68
2023/01/17 12:02:36;;;;;;;;;0.00;0.00;;;;;4.64;65.17;98715.34;5032380;28;11498;-67
2023/01/17 12:05:22;;;;;;;;;5.00;2.50;;;;;4.70;64.61;98707.38;5030101;28;12324;-68
2023/01/17 12:08:03;;;;;;;;;2.00;2.00;;;;;4.73;64.34;98706.09;5021483;28;11464;-68
2023/01/17 12:10:33;;;;;;;;;1.00;1.00;;;;;4.76;64.11;98705.69;5037372;28;11582;-68
2023/01/17 12:16:30;;;;;;;;;3.00;2.50;;;;;4.93;64.85;98703.38;5010726;28;11456;-69
2023/01/17 12:19:02;;;;;;;;;2.00;2.00;;;;;4.88;64.69;98692.53;5015029;28;12276;-68
2023/01/17 12:21:45;;;;;;;;;0.50;0.25;;;;;4.88;64.09;98696.03;5020090;28;11502;-68
2023/01/17 12:24:44;;;;;;;;;1.00;1.00;;;;;4.91;64.26;98702.78;5021871;28;11570;-69
2023/01/17 12:27:46;;;;;;;;;1.00;1.00;;;;;4.95;64.80;98699.50;5030255;28;11171;-69
2023/01/17 12:30:34;;;;;;;;;2.50;2.00;;;;;5.02;65.61;98683.44;5029851;28;11426;-67
2023/01/17 12:33:32;;;;;;;;;1.75;0.75;;;;;5.00;64.06;98690.03;5028726;28;12184;-69
2023/01/17 12:36:22;;;;;;;;;1.00;1.00;;;;;4.92;63.27;98691.09;5018036;28;11439;-67
2023/01/17 12:38:48;;;;;;;;;0.00;0.00;;;;;4.92;62.22;98697.25;5024907;28;11441;-68
2023/01/17 12:41:27;;;;;;;;;1.00;1.00;;;;;4.97;61.81;98689.41;5028397;28;11178;-67
2023/01/17 12:43:58;;;;;;;;;0.00;0.00;;;;;5.03;61.21;98689.63;5017959;28;11072;-69
2023/01/17 12:46:39;;;;;;;;;0.75;0.50;;;;;5.06;61.07;98684.66;5012478;28;11137;-68
2023/01/17 12:49:23;;;;;;;;;0.00;0.00;;;;;5.06;59.87;98689.19;5024846;28;11126;-69
2023/01/17 12:52:02;;;;;;;;;0.00;0.00;;;;;5.10;59.69;98688.53;5018337;28;11582;-69
2023/01/17 12:54:36;;;;;;;;;1.00;1.00;;;;;5.18;59.67;98695.50;5009858;28;11990;-69
2023/01/17 12:57:12;;;;;;;;;0.00;0.00;;;;;5.16;58.45;98698.38;5023728;28;11476;-68
2023/01/17 13:00:05;;;;;;;;;0.75;0.00;;;;;5.20;58.06;98688.13;5011186;28;11521;-68
2023/01/17 13:02:41;;;;;;;;;0.00;0.00;;;;;5.24;58.60;98693.84;5018069;28;10963;-68
2023/01/17 13:05:16;;;;;;;;;0.00;0.00;;;;;5.09;58.18;98696.78;5014926;28;10946;-67
2023/01/17 13:07:56;;;;;;;;;0.00;0.00;;;;;5.00;57.76;98692.72;5014298;28;11138;-68
2023/01/17 13:10:30;;;;;;;;;0.00;0.00;;;;;4.92;58.39;98699.09;5029058;28;11209;-69
2023/01/17 13:13:03;;;;;;;;;0.00;0.00;;;;;4.96;59.18;98701.13;5022410;28;10932;-69
2023/01/17 13:15:37;;;;;;;;;0.00;0.00;;;;;5.03;58.61;98694.97;5023134;28;11202;-68
2023/01/17 13:18:12;;;;;;;;;1.00;0.00;;;;;5.14;58.26;98704.94;5020488;28;11250;-67
2023/01/17 13:21:03;;;;;;;;;0.00;0.00;;;;;5.20;58.17;98710.25;5028670;28;11124;-67
2023/01/17 13:23:57;;;;;;;;;0.00;0.00;;;;;5.23;56.93;98698.38;5029914;28;11117;-66
2023/01/17 13:26:55;;;;;;;;;0.25;0.25;;;;;5.15;57.89;98699.41;5029535;28;11752;-68
2023/01/17 13:29:43;;;;;;;;;0.00;0.00;;;;;5.04;57.26;98700.06;5027935;28;11018;-67